createdAt,value
2022-09-07T00:00:40.389Z,49.78
2022-09-07T00:03:42.855Z,49.85
2022-09-07T00:06:44.507Z,49.83
2022-09-07T00:09:46.164Z,50.51
2022-09-07T00:12:47.797Z,50.09
2022-09-07T00:15:49.869Z,50.09
2022-09-07T00:18:58.179Z,50.66
2022-09-07T00:21:59.865Z,51.09
2022-09-07T00:25:02.033Z,51.12
2022-09-07T00:28:03.655Z,50.65
2022-09-07T00:31:10.908Z,50.21
2022-09-07T00:34:12.686Z,49.95
2022-09-07T00:37:14.341Z,49.98
2022-09-07T00:40:16.027Z,49.99
2022-09-07T00:43:33.050Z,50.20
2022-09-07T00:46:36.117Z,49.93
2022-09-07T00:49:39.233Z,49.65
2022-09-07T00:52:43.902Z,49.48
2022-09-07T00:55:48.302Z,49.61
2022-09-07T00:58:50.781Z,50.59
2022-09-07T01:01:53.048Z,50.32
2022-09-07T01:05:09.378Z,50.45
2022-09-07T01:08:13.500Z,50.72
2022-09-07T01:11:18.040Z,50.71
2022-09-07T01:14:23.173Z,50.68
2022-09-07T01:17:38.486Z,50.38
2022-09-07T01:21:32.051Z,51.09
2022-09-07T01:24:52.076Z,51.76
2022-09-07T01:28:06.443Z,51.37
2022-09-07T01:31:18.307Z,52.06
2022-09-07T01:34:25.371Z,51.80
2022-09-07T01:37:26.964Z,51.99
2022-09-07T01:40:44.272Z,51.56
2022-09-07T01:43:55.253Z,51.85
2022-09-07T01:47:12.870Z,52.45
2022-09-07T01:50:22.180Z,52.58
2022-09-07T01:53:33.168Z,52.24
2022-09-07T01:56:40.455Z,52.39
2022-09-07T01:59:47.629Z,52.82
2022-09-07T02:03:09.890Z,52.29
2022-09-07T02:06:50.059Z,52.43
2022-09-07T02:10:00.349Z,52.80
2022-09-07T02:13:12.733Z,53.06
2022-09-07T02:16:16.410Z,53.21
2022-09-07T02:19:20.294Z,52.98
2022-09-07T02:22:30.479Z,52.88
2022-09-07T02:25:40.039Z,52.75
2022-09-07T02:28:42.137Z,52.70
2022-09-07T02:31:43.918Z,53.22
2022-09-07T02:34:45.782Z,53.52
2022-09-07T02:37:49.917Z,54.03
2022-09-07T02:40:56.388Z,54.22
2022-09-07T02:43:59.292Z,54.07
2022-09-07T02:47:00.827Z,54.29
2022-09-07T02:50:05.042Z,54.20
2022-09-07T02:53:28.363Z,54.30
2022-09-07T02:56:58.896Z,54.37
2022-09-07T03:00:10.910Z,54.68
2022-09-07T03:03:22.717Z,54.83
2022-09-07T03:06:33.064Z,54.93
2022-09-07T03:09:40.354Z,54.90
2022-09-07T03:12:44.656Z,54.73
2022-09-07T03:15:46.292Z,54.90
2022-09-07T03:18:48.113Z,54.89
2022-09-07T03:21:49.648Z,54.76
2022-09-07T03:24:51.166Z,54.63
2022-09-07T03:27:52.723Z,54.46
2022-09-07T03:30:54.311Z,54.28
2022-09-07T03:33:55.866Z,54.23
2022-09-07T03:36:57.369Z,54.21
2022-09-07T03:39:58.973Z,54.19
2022-09-07T03:43:00.668Z,54.18
2022-09-07T03:46:05.183Z,54.16
2022-09-07T03:49:06.772Z,54.10
2022-09-07T03:52:08.317Z,54.14
2022-09-07T03:55:10.581Z,54.25
2022-09-07T03:58:12.007Z,54.55
2022-09-07T04:01:17.719Z,54.49
2022-09-07T04:04:19.348Z,54.95
2022-09-07T04:07:20.860Z,54.79
2022-09-07T04:10:22.370Z,54.57
2022-09-07T04:13:25.031Z,55.24
2022-09-07T04:16:27.504Z,55.63
2022-09-07T04:19:29.953Z,55.95
2022-09-07T04:22:31.516Z,55.89
2022-09-07T04:25:34.223Z,56.09
2022-09-07T04:28:35.758Z,56.28
2022-09-07T04:31:37.922Z,56.22
2022-09-07T04:34:39.498Z,56.31
2022-09-07T04:37:41.357Z,56.51
2022-09-07T04:40:43.386Z,56.67
2022-09-07T04:43:46.209Z,57.03
2022-09-07T04:46:47.787Z,57.03
2022-09-07T04:49:52.640Z,57.20
2022-09-07T04:52:54.219Z,57.51
2022-09-07T04:55:57.681Z,57.69
2022-09-07T04:59:01.000Z,57.73
2022-09-07T05:02:02.660Z,57.71
2022-09-07T05:05:05.683Z,58.04
2022-09-07T05:08:07.281Z,58.10
2022-09-07T05:11:10.109Z,58.35
2022-09-07T05:14:11.659Z,58.40
2022-09-07T05:17:13.203Z,58.57
2022-09-07T05:20:19.638Z,58.65
2022-09-07T05:23:23.767Z,58.60
2022-09-07T05:26:27.786Z,58.61
2022-09-07T05:32:52.201Z,57.99
2022-09-07T05:35:57.818Z,57.88
2022-09-07T05:38:59.376Z,57.71
2022-09-07T05:42:00.969Z,57.70
2022-09-07T05:45:03.473Z,57.39
2022-09-07T05:48:04.998Z,57.23
2022-09-07T05:51:06.870Z,57.43
2022-09-07T05:54:10.228Z,57.42
2022-09-07T05:57:12.686Z,57.05
2022-09-07T06:00:14.624Z,56.81
2022-09-07T06:03:16.339Z,56.85
2022-09-07T06:06:18.686Z,56.85
2022-09-07T06:09:20.209Z,56.62
2022-09-07T06:12:21.752Z,56.62
2022-09-07T06:15:23.374Z,56.57
2022-09-07T06:18:29.084Z,56.54
2022-09-07T06:21:30.754Z,56.41
2022-09-07T06:24:32.269Z,56.74
2022-09-07T06:27:33.973Z,56.58
2022-09-07T06:30:35.657Z,56.52
2022-09-07T06:33:37.215Z,56.43
2022-09-07T06:36:38.782Z,56.77
2022-09-07T06:39:40.720Z,56.57
2022-09-07T06:42:42.494Z,56.37
2022-09-07T06:45:52.024Z,56.42
2022-09-07T06:48:54.156Z,56.26
2022-09-07T06:51:55.739Z,56.49
2022-09-07T06:58:03.904Z,56.59
2022-09-07T07:01:17.065Z,56.61
2022-09-07T07:04:18.651Z,56.51
2022-09-07T07:07:20.234Z,56.56
2022-09-07T07:10:24.770Z,57.43
2022-09-07T07:13:28.022Z,57.33
2022-09-07T07:16:29.620Z,57.58
2022-09-07T07:19:31.393Z,57.16
2022-09-07T07:22:48.413Z,57.08
2022-09-07T07:25:50.042Z,56.75
2022-09-07T07:29:02.797Z,56.67
2022-09-07T07:32:05.497Z,56.55
2022-09-07T07:35:08.191Z,56.60
2022-09-07T07:48:16.051Z,56.60
2022-09-07T07:51:17.715Z,56.55
2022-09-07T07:54:19.357Z,56.39
2022-09-07T07:57:20.899Z,56.71
2022-09-07T08:00:37.424Z,56.22
2022-09-07T08:03:46.877Z,56.35
2022-09-07T08:06:48.604Z,56.01
2022-09-07T08:09:50.315Z,55.76
2022-09-07T08:12:52.597Z,55.69
2022-09-07T08:15:58.340Z,55.26
2022-09-07T08:19:00.527Z,55.32
2022-09-07T08:22:03.258Z,54.97
2022-09-07T08:25:06.526Z,54.92
2022-09-07T08:28:08.149Z,54.95
2022-09-07T08:31:15.309Z,54.66
2022-09-07T08:34:17.065Z,55.03
2022-09-07T08:37:18.595Z,55.43
2022-09-07T08:40:20.309Z,55.13
2022-09-07T08:43:27.936Z,55.37
2022-09-07T08:46:48.183Z,55.20
2022-09-07T08:50:19.741Z,55.22
2022-09-07T08:53:22.323Z,54.99
2022-09-07T08:56:34.749Z,54.78
2022-09-07T08:59:42.007Z,55.27
2022-09-07T09:02:45.025Z,55.10
2022-09-07T09:05:56.468Z,55.09
2022-09-07T09:09:07.336Z,54.44
2022-09-07T09:12:47.971Z,53.90
2022-09-07T09:16:04.019Z,53.64
2022-09-07T09:19:30.392Z,53.28
2022-09-07T09:22:32.360Z,53.56
2022-09-07T09:25:36.543Z,53.69
2022-09-07T09:28:38.819Z,53.07
2022-09-07T09:31:40.600Z,52.59
2022-09-07T09:35:00.628Z,52.03
2022-09-07T09:38:02.996Z,52.41
2022-09-07T09:41:09.074Z,52.00
2022-09-07T09:44:15.486Z,51.72
2022-09-07T09:47:30.027Z,51.01
2022-09-07T09:54:07.312Z,50.61
2022-09-07T09:57:16.694Z,50.18
2022-09-07T10:00:29.220Z,50.34
2022-09-07T10:07:02.943Z,49.95
2022-09-07T10:10:04.883Z,49.36
2022-09-07T10:13:19.985Z,49.60
2022-09-07T10:16:38.819Z,49.85
2022-09-07T10:19:42.576Z,49.11
2022-09-07T10:22:56.435Z,48.43
2022-09-07T10:25:58.021Z,48.05
2022-09-07T10:29:15.097Z,47.65
2022-09-07T10:32:26.331Z,47.63
2022-09-07T10:35:35.044Z,47.52
2022-09-07T10:38:45.232Z,47.06
2022-09-07T10:41:58.834Z,47.16
2022-09-07T10:45:27.084Z,47.00
2022-09-07T10:48:35.060Z,46.47
2022-09-07T10:51:54.508Z,46.43
2022-09-07T10:55:06.180Z,46.37
2022-09-07T10:59:01.432Z,45.65
2022-09-07T11:01:59.818Z,46.55
2022-09-07T11:05:23.008Z,46.97
2022-09-07T11:12:16.859Z,45.71
2022-09-07T11:15:25.778Z,44.99
2022-09-07T11:18:32.821Z,44.78
2022-09-07T11:22:15.460Z,46.15
2022-09-07T11:25:30.059Z,46.59
2022-09-07T11:28:47.183Z,46.21
2022-09-07T11:31:57.964Z,45.26
2022-09-07T11:35:11.800Z,45.93
2022-09-07T11:38:28.390Z,46.40
2022-09-07T11:41:36.212Z,45.58
2022-09-07T11:44:56.719Z,45.51
2022-09-07T11:48:13.059Z,44.90
2022-09-07T11:51:25.900Z,44.75
2022-09-07T11:54:33.250Z,45.07
2022-09-07T11:57:52.394Z,45.63
2022-09-07T12:01:15.331Z,44.50
2022-09-07T12:04:28.990Z,46.23
2022-09-07T12:07:41.540Z,45.44
2022-09-07T12:10:54.442Z,45.88
2022-09-07T12:14:33.645Z,45.28
2022-09-07T12:17:58.698Z,44.35
2022-09-07T12:21:00.324Z,44.06
2022-09-07T12:24:03.013Z,45.70
2022-09-07T12:27:25.756Z,46.17
2022-09-07T12:30:29.499Z,45.18
2022-09-07T12:33:34.246Z,44.68
2022-09-07T12:36:35.728Z,44.99
2022-09-07T12:39:40.688Z,44.40
2022-09-07T12:42:42.391Z,43.91
2022-09-07T12:45:46.655Z,44.29
2022-09-07T12:49:04.060Z,44.01
2022-09-07T12:52:36.315Z,45.21
2022-09-07T12:59:26.180Z,44.71
2022-09-07T13:02:27.804Z,45.08
2022-09-07T13:05:58.345Z,45.03
2022-09-07T13:09:18.457Z,44.95
2022-09-07T13:16:06.278Z,45.70
2022-09-07T13:19:33.904Z,46.92
2022-09-07T13:22:35.600Z,47.39
2022-09-07T13:25:37.068Z,47.48
2022-09-07T13:28:51.886Z,46.64
2022-09-07T13:32:13.010Z,46.65
2022-09-07T13:35:23.796Z,47.37
2022-09-07T13:38:26.209Z,47.12
2022-09-07T13:41:36.566Z,48.58
2022-09-07T13:44:38.338Z,47.64
2022-09-07T13:47:52.554Z,47.88
2022-09-07T13:51:09.844Z,47.68
2022-09-07T13:54:40.782Z,48.10
2022-09-07T13:58:00.468Z,47.54
2022-09-07T14:01:06.970Z,47.21
2022-09-07T14:04:22.031Z,47.92
2022-09-07T14:07:25.808Z,48.35
2022-09-07T14:10:28.532Z,48.71
2022-09-07T14:13:30.492Z,49.11
2022-09-07T14:16:32.912Z,48.77
2022-09-07T14:19:48.936Z,48.48
2022-09-07T14:22:53.374Z,46.89
2022-09-07T14:26:22.570Z,47.52
2022-09-07T14:29:29.485Z,48.56
2022-09-07T14:32:31.505Z,48.94
2022-09-07T14:35:36.567Z,49.39
2022-09-07T14:42:03.108Z,48.79
2022-09-07T14:45:22.533Z,49.35
2022-09-07T14:48:31.436Z,50.70
2022-09-07T14:51:36.496Z,50.62
2022-09-07T14:54:39.230Z,50.64
2022-09-07T14:57:41.300Z,50.77
2022-09-07T15:04:30.552Z,49.83
2022-09-07T15:07:38.946Z,50.63
2022-09-07T15:10:41.304Z,50.86
2022-09-07T15:13:44.458Z,51.52
2022-09-07T15:20:30.948Z,52.65
2022-09-07T15:23:32.742Z,53.17
2022-09-07T15:30:02.553Z,53.88
2022-09-07T15:33:04.104Z,53.88
2022-09-07T15:36:06.992Z,54.59
2022-09-07T15:39:27.340Z,54.74
2022-09-07T15:45:51.279Z,55.14
2022-09-07T15:48:55.072Z,55.17
2022-09-07T15:52:11.984Z,55.59
2022-09-07T15:55:14.430Z,56.04
2022-09-07T15:58:16.214Z,56.74
2022-09-07T16:04:39.453Z,56.51
2022-09-07T16:11:18.523Z,57.12
2022-09-07T16:14:20.595Z,56.60
2022-09-07T16:17:35.782Z,56.88
2022-09-07T16:20:40.452Z,56.58
2022-09-07T16:23:44.797Z,56.83
2022-09-07T16:26:46.305Z,56.75
2022-09-07T16:29:48.404Z,57.41
2022-09-07T16:32:51.707Z,57.72
2022-09-07T16:36:00.679Z,57.64
2022-09-07T16:39:02.607Z,57.41
2022-09-07T16:42:04.543Z,57.98
2022-09-07T16:48:29.293Z,57.93
2022-09-07T16:51:30.870Z,58.15
2022-09-07T16:54:32.612Z,58.35
2022-09-07T16:58:35.361Z,58.70
2022-09-07T17:00:56.019Z,58.71
2022-09-07T17:03:58.109Z,59.00
2022-09-07T17:07:02.504Z,59.53
2022-09-07T17:10:04.867Z,59.06
2022-09-07T17:13:09.252Z,59.51
2022-09-07T17:16:19.169Z,59.69
2022-09-07T17:19:29.194Z,59.95
2022-09-07T17:22:31.325Z,60.24
2022-09-07T17:25:33.356Z,60.43
2022-09-07T17:28:36.723Z,60.02
2022-09-07T17:35:00.092Z,60.67
2022-09-07T17:39:14.442Z,60.85
2022-09-07T17:41:27.244Z,60.82
2022-09-07T17:44:33.303Z,60.85
2022-09-07T17:47:38.137Z,61.01
2022-09-07T17:50:39.602Z,61.11
2022-09-07T17:53:45.271Z,60.71
2022-09-07T17:56:47.281Z,60.84
2022-09-07T18:03:14.080Z,61.11
2022-09-07T18:06:15.806Z,61.41
2022-09-07T18:09:18.886Z,61.43
2022-09-07T18:12:20.341Z,61.49
2022-09-07T18:15:21.916Z,61.64
2022-09-07T18:18:23.824Z,61.78
2022-09-07T18:21:31.030Z,61.79
2022-09-07T18:24:32.592Z,61.76
2022-09-07T18:27:36.454Z,61.84
2022-09-07T18:30:39.175Z,61.87
2022-09-07T18:33:41.017Z,61.87
2022-09-07T18:36:44.002Z,61.94
2022-09-07T18:39:50.831Z,61.96
2022-09-07T18:42:52.713Z,61.94
2022-09-07T18:46:08.574Z,61.83
2022-09-07T18:49:13.313Z,61.94
2022-09-07T18:55:37.345Z,61.38
2022-09-07T18:58:41.339Z,61.32
2022-09-07T19:01:43.152Z,61.15
2022-09-07T19:08:08.541Z,61.51
2022-09-07T19:11:16.481Z,61.43
2022-09-07T19:14:18.146Z,61.43
2022-09-07T19:17:19.758Z,61.38
2022-09-07T19:20:21.326Z,61.29
2022-09-07T19:23:23.862Z,61.34
2022-09-07T19:26:28.312Z,61.35
2022-09-07T19:29:31.129Z,61.35
2022-09-07T19:32:33.161Z,61.46
2022-09-07T19:35:35.678Z,61.45
2022-09-07T19:38:37.230Z,61.36
2022-09-07T19:41:42.068Z,61.32
2022-09-07T19:44:44.268Z,61.26
2022-09-07T19:47:45.860Z,60.99
2022-09-07T19:50:49.767Z,61.00
2022-09-07T19:53:51.299Z,61.03
2022-09-07T19:56:55.890Z,61.08
2022-09-07T20:00:01.095Z,60.97
2022-09-07T20:03:10.881Z,60.81
2022-09-07T20:06:15.596Z,60.61
2022-09-07T20:09:20.357Z,61.04
2022-09-07T20:12:22.995Z,61.03
2022-09-07T20:15:25.497Z,61.22
2022-09-07T20:18:27.345Z,61.36
2022-09-07T20:21:30.254Z,61.32
2022-09-07T20:24:33.556Z,61.57
2022-09-07T20:27:35.279Z,61.54
2022-09-07T20:30:43.089Z,61.71
2022-09-07T20:33:46.135Z,61.52
2022-09-07T20:36:51.194Z,61.39
2022-09-07T20:39:52.712Z,61.50
2022-09-07T20:42:54.190Z,61.54
2022-09-07T20:45:57.394Z,61.47
2022-09-07T20:49:02.494Z,61.64
2022-09-07T20:52:04.751Z,61.49
2022-09-07T20:55:07.230Z,61.50
2022-09-07T20:58:08.805Z,61.25
2022-09-07T21:01:17.666Z,61.18
2022-09-07T21:04:19.199Z,61.10
2022-09-07T21:07:22.237Z,60.43
2022-09-07T21:10:23.771Z,60.20
2022-09-07T21:13:25.293Z,60.79
2022-09-07T21:16:27.792Z,60.71
2022-09-07T21:19:29.319Z,60.52
2022-09-07T21:22:34.173Z,60.44
2022-09-07T21:25:43.397Z,60.52
2022-09-07T21:28:44.886Z,60.40
2022-09-07T21:31:47.292Z,59.36
2022-09-07T21:34:48.830Z,59.23
2022-09-07T21:37:58.835Z,59.79
2022-09-07T21:41:09.109Z,59.56
2022-09-07T21:44:12.913Z,59.47
2022-09-07T21:47:15.153Z,59.65
2022-09-07T21:50:16.921Z,59.37
2022-09-07T21:53:18.459Z,59.09
2022-09-07T21:56:20.386Z,59.30
2022-09-07T21:59:21.811Z,59.05
2022-09-07T22:02:23.410Z,58.72
2022-09-07T22:05:24.938Z,58.67
2022-09-07T22:08:26.445Z,58.60
2022-09-07T22:11:29.590Z,58.26
2022-09-07T22:14:31.224Z,58.46
2022-09-07T22:17:32.697Z,57.64
2022-09-07T22:20:34.297Z,58.59
2022-09-07T22:23:39.273Z,58.61
2022-09-07T22:26:40.868Z,58.28
2022-09-07T22:29:42.432Z,58.55
2022-09-07T22:32:48.477Z,58.12
2022-09-07T22:35:50.042Z,57.89
2022-09-07T22:38:56.515Z,57.15
2022-09-07T22:41:57.943Z,57.50
2022-09-07T22:44:59.410Z,57.99
2022-09-07T22:48:01.409Z,57.55
2022-09-07T22:51:03.899Z,57.65
2022-09-07T22:54:05.783Z,57.66
2022-09-07T22:57:07.291Z,57.61
2022-09-07T23:00:09.468Z,57.43
2022-09-07T23:03:11.288Z,57.94
2022-09-07T23:06:30.727Z,58.00
2022-09-07T23:09:32.316Z,58.09
2022-09-07T23:12:33.833Z,58.12
2022-09-07T23:15:35.745Z,58.08
2022-09-07T23:18:40.317Z,57.62
2022-09-07T23:21:42.861Z,58.01
2022-09-07T23:24:44.435Z,57.42
2022-09-07T23:27:45.983Z,58.08
2022-09-07T23:30:50.855Z,58.37
2022-09-07T23:33:52.347Z,58.24
2022-09-07T23:36:53.810Z,58.46
2022-09-07T23:39:55.633Z,58.28
2022-09-07T23:42:57.696Z,58.28
2022-09-07T23:45:59.394Z,58.43
2022-09-07T23:49:01.076Z,58.42
2022-09-07T23:52:02.655Z,58.64
2022-09-07T23:55:04.754Z,58.72
2022-09-07T23:58:07.158Z,58.81
